createdAt,value
2018-09-13T00:02:24.798Z,9.73
2018-09-13T00:04:54.275Z,13.07
2018-09-13T00:07:23.917Z,11.47
2018-09-13T00:09:53.453Z,10.27
2018-09-13T00:12:23.028Z,10.10
2018-09-13T00:14:52.612Z,12.47
2018-09-13T00:17:22.116Z,11.77
2018-09-13T00:19:51.657Z,10.80
2018-09-13T00:22:21.378Z,9.07
2018-09-13T00:24:51.052Z,14.37
2018-09-13T00:27:20.531Z,9.23
2018-09-13T00:29:50.039Z,6.77
2018-09-13T00:32:19.520Z,10.83
2018-09-13T00:34:49.059Z,7.23
2018-09-13T00:37:18.575Z,9.40
2018-09-13T00:39:48.006Z,7.67
2018-09-13T00:42:17.472Z,9.40
2018-09-13T00:44:46.997Z,9.93
2018-09-13T00:47:16.492Z,12.07
2018-09-13T00:49:46.710Z,7.73
2018-09-13T00:52:16.211Z,12.43
2018-09-13T00:54:45.693Z,8.17
2018-09-13T00:57:15.184Z,12.07
2018-09-13T00:59:44.736Z,12.30
2018-09-13T01:02:14.223Z,11.60
2018-09-13T01:04:43.734Z,11.13
2018-09-13T01:12:56.144Z,14.33
2018-09-13T01:15:25.729Z,11.30
2018-09-13T01:17:55.317Z,13.13
2018-09-13T01:20:24.846Z,11.03
2018-09-13T01:22:54.453Z,11.63
2018-09-13T01:25:24.032Z,9.50
2018-09-13T01:27:53.675Z,11.53
2018-09-13T01:30:23.184Z,9.23
2018-09-13T01:32:52.692Z,11.37
2018-09-13T01:35:22.589Z,10.00
2018-09-13T01:37:52.227Z,9.90
2018-09-13T01:40:21.720Z,10.90
2018-09-13T01:42:51.443Z,11.97
2018-09-13T01:45:21.033Z,16.00
2018-09-13T01:47:50.609Z,8.27
2018-09-13T01:50:20.175Z,13.00
2018-09-13T01:52:49.599Z,11.80
2018-09-13T01:55:19.079Z,11.20
2018-09-13T01:57:48.580Z,10.10
2018-09-13T02:00:18.082Z,11.00
2018-09-13T02:02:47.587Z,11.10
2018-09-13T02:05:17.095Z,7.63
2018-09-13T02:07:46.623Z,11.17
2018-09-13T02:10:16.075Z,9.70
2018-09-13T02:12:45.543Z,12.87
2018-09-13T02:15:15.269Z,6.73
2018-09-13T02:17:44.834Z,7.97
2018-09-13T02:20:14.322Z,9.63
2018-09-13T02:22:43.869Z,10.03
2018-09-13T02:25:13.333Z,8.83
2018-09-13T02:27:42.765Z,11.63
2018-09-13T02:30:12.244Z,9.10
2018-09-13T02:32:41.715Z,7.77
2018-09-13T02:35:11.309Z,9.73
2018-09-13T02:37:40.785Z,10.57
2018-09-13T02:40:10.241Z,7.70
2018-09-13T02:42:39.751Z,8.83
2018-09-13T02:45:09.296Z,9.20
2018-09-13T02:47:38.774Z,10.03
2018-09-13T02:50:08.284Z,9.67
2018-09-13T02:52:37.749Z,8.83
2018-09-13T02:55:07.202Z,9.20
2018-09-13T02:57:36.687Z,11.30
2018-09-13T03:00:07.309Z,9.13
2018-09-13T03:02:36.939Z,7.70
2018-09-13T03:05:06.476Z,6.17
2018-09-13T03:07:35.960Z,7.37
2018-09-13T03:10:05.458Z,7.93
2018-09-13T03:12:35.238Z,6.83
2018-09-13T03:15:05.042Z,10.30
2018-09-13T03:17:34.539Z,7.87
2018-09-13T03:20:04.156Z,9.10
2018-09-13T03:22:33.615Z,9.60
2018-09-13T03:25:03.194Z,8.20
2018-09-13T03:27:32.757Z,5.90
2018-09-13T03:30:02.266Z,8.20
2018-09-13T03:32:32.080Z,9.63
2018-09-13T03:35:01.650Z,5.90
2018-09-13T03:37:31.153Z,10.27
2018-09-13T03:40:00.662Z,13.67
2018-09-13T03:42:30.192Z,5.43
2018-09-13T03:45:00.621Z,11.80
2018-09-13T03:47:30.183Z,8.07
2018-09-13T03:49:59.719Z,9.60
2018-09-13T03:52:29.230Z,13.43
2018-09-13T03:54:58.756Z,9.47
2018-09-13T03:57:29.017Z,10.10
2018-09-13T03:59:58.590Z,14.60
2018-09-13T04:02:28.094Z,9.30
2018-09-13T04:04:57.902Z,6.90
2018-09-13T04:07:27.400Z,6.43
2018-09-13T04:09:56.919Z,12.23
2018-09-13T04:12:27.106Z,7.70
2018-09-13T04:14:56.629Z,7.00
2018-09-13T04:17:26.137Z,9.23
2018-09-13T04:19:55.629Z,6.20
2018-09-13T04:22:25.177Z,7.77
2018-09-13T04:24:54.705Z,8.50
2018-09-13T04:27:24.323Z,9.60
2018-09-13T04:29:54.094Z,10.30
2018-09-13T04:32:23.634Z,8.17
2018-09-13T04:34:53.323Z,9.17
2018-09-13T04:37:22.872Z,7.57
2018-09-13T04:39:52.533Z,7.87
2018-09-13T04:42:21.999Z,10.67
2018-09-13T04:44:51.625Z,8.73
2018-09-13T04:47:21.223Z,6.80
2018-09-13T04:49:50.871Z,6.50
2018-09-13T04:52:25.978Z,10.70
2018-09-13T04:54:55.581Z,11.10
2018-09-13T04:57:25.122Z,13.00
2018-09-13T04:59:55.066Z,11.28
2018-09-13T05:02:24.549Z,9.83
2018-09-13T05:04:54.130Z,9.73
2018-09-13T05:07:23.678Z,8.43
2018-09-13T05:09:53.326Z,4.73
2018-09-13T05:12:23.020Z,7.97
2018-09-13T05:14:52.792Z,12.07
2018-09-13T05:17:22.536Z,9.07
2018-09-13T05:19:52.314Z,9.50
2018-09-13T05:22:22.000Z,5.97
2018-09-13T05:24:51.895Z,8.43
2018-09-13T05:27:21.607Z,10.40
2018-09-13T05:29:51.397Z,8.10
2018-09-13T05:32:21.114Z,9.97
2018-09-13T05:34:51.858Z,8.00
2018-09-13T05:37:21.581Z,7.43
2018-09-13T05:39:51.316Z,8.07
2018-09-13T05:42:21.028Z,9.53
2018-09-13T05:44:50.706Z,7.77
2018-09-13T05:47:20.473Z,9.70
2018-09-13T05:49:50.243Z,5.90
2018-09-13T05:52:20.040Z,9.33
2018-09-13T05:54:49.789Z,11.47
2018-09-13T05:57:19.585Z,10.30
2018-09-13T05:59:49.307Z,9.57
2018-09-13T06:02:19.207Z,7.73
2018-09-13T06:04:48.938Z,8.70
2018-09-13T06:07:18.700Z,13.47
2018-09-13T06:09:48.391Z,9.43
2018-09-13T06:12:18.111Z,8.80
2018-09-13T06:14:47.832Z,9.43
2018-09-13T06:17:17.552Z,10.03
2018-09-13T06:19:47.344Z,9.03
2018-09-13T06:22:17.061Z,7.37
2018-09-13T06:24:46.775Z,5.30
2018-09-13T06:27:16.493Z,11.37
2018-09-13T06:29:46.255Z,8.43
2018-09-13T06:32:15.909Z,9.97
2018-09-13T06:34:45.666Z,8.60
2018-09-13T06:37:15.404Z,10.07
2018-09-13T06:39:45.362Z,7.87
2018-09-13T06:42:15.193Z,11.33
2018-09-13T06:44:44.965Z,9.20
2018-09-13T06:47:14.669Z,9.17
2018-09-13T06:49:44.541Z,7.63
2018-09-13T06:52:14.272Z,6.17
2018-09-13T06:54:43.967Z,8.37
2018-09-13T06:57:13.695Z,9.77
2018-09-13T06:59:44.472Z,6.67
2018-09-13T07:02:14.163Z,9.20
2018-09-13T07:04:43.936Z,8.07
2018-09-13T07:07:13.722Z,8.43
2018-09-13T07:09:43.466Z,4.87
2018-09-13T07:12:13.395Z,10.03
2018-09-13T07:14:43.164Z,4.67
2018-09-13T07:17:12.968Z,5.43
2018-09-13T07:19:42.744Z,6.43
2018-09-13T07:22:12.817Z,8.97
2018-09-13T07:24:42.573Z,5.83
2018-09-13T07:27:12.294Z,6.00
2018-09-13T07:29:42.083Z,11.33
2018-09-13T07:32:11.876Z,8.70
2018-09-13T07:34:41.656Z,9.40
2018-09-13T07:37:11.476Z,7.10
2018-09-13T07:39:41.518Z,6.10
2018-09-13T07:42:11.802Z,7.70
2018-09-13T07:44:41.587Z,6.57
2018-09-13T07:47:11.335Z,5.40
2018-09-13T07:49:41.158Z,5.67
2018-09-13T07:52:10.933Z,8.43
2018-09-13T07:54:40.709Z,4.20
2018-09-13T07:57:10.485Z,4.47
2018-09-13T07:59:40.222Z,7.17
2018-09-13T08:02:09.943Z,4.87
2018-09-13T08:04:39.821Z,6.43
2018-09-13T08:07:09.659Z,5.23
2018-09-13T08:09:39.361Z,7.27
2018-09-13T08:12:09.312Z,4.57
2018-09-13T08:14:39.093Z,10.73
2018-09-13T08:17:08.852Z,7.60
2018-09-13T08:19:38.559Z,5.73
2018-09-13T08:22:08.605Z,7.53
2018-09-13T08:24:38.389Z,4.37
2018-09-13T08:27:08.316Z,6.50
2018-09-13T08:29:38.073Z,6.20
2018-09-13T08:32:07.817Z,7.90
2018-09-13T08:34:37.557Z,3.13
2018-09-13T08:37:07.386Z,4.60
2018-09-13T08:39:37.020Z,5.80
2018-09-13T08:42:06.842Z,5.23
2018-09-13T08:44:36.556Z,6.87
2018-09-13T08:47:06.396Z,2.83
2018-09-13T08:49:36.122Z,4.13
2018-09-13T08:52:06.012Z,5.63
2018-09-13T08:54:35.714Z,3.33
2018-09-13T08:57:05.505Z,5.03
2018-09-13T08:59:35.238Z,4.17
2018-09-13T09:02:05.036Z,5.13
2018-09-13T09:04:34.776Z,5.93
2018-09-13T09:07:04.551Z,4.70
2018-09-13T09:09:34.262Z,6.10
2018-09-13T09:12:04.079Z,3.13
2018-09-13T09:14:33.862Z,2.33
2018-09-13T09:17:03.552Z,3.77
2018-09-13T09:19:33.278Z,2.57
2018-09-13T09:22:03.089Z,6.13
2018-09-13T09:24:32.756Z,3.50
2018-09-13T09:27:02.520Z,4.83
2018-09-13T09:29:32.203Z,4.37
2018-09-13T09:32:01.918Z,5.30
2018-09-13T09:34:31.679Z,2.97
2018-09-13T09:37:01.452Z,4.10
2018-09-13T09:39:31.196Z,3.20
2018-09-13T09:42:00.927Z,3.00
2018-09-13T09:44:30.643Z,2.07
2018-09-13T09:47:00.407Z,4.80
2018-09-13T09:49:30.250Z,5.73
2018-09-13T09:52:00.076Z,4.07
2018-09-13T09:54:29.813Z,7.50
2018-09-13T09:56:59.501Z,2.70
2018-09-13T09:59:29.185Z,5.27
2018-09-13T10:02:03.921Z,6.70
2018-09-13T10:04:33.677Z,5.57
2018-09-13T10:07:03.484Z,3.03
2018-09-13T10:09:33.307Z,2.83
2018-09-13T10:12:03.440Z,6.03
2018-09-13T10:14:33.192Z,4.40
2018-09-13T10:17:08.187Z,3.80
2018-09-13T10:19:43.258Z,3.90
2018-09-13T10:24:25.139Z,3.43
2018-09-13T10:27:00.085Z,5.07
2018-09-13T10:29:35.123Z,5.47
2018-09-13T10:32:10.057Z,5.77
2018-09-13T10:34:44.897Z,3.73
2018-09-13T10:37:19.883Z,5.07
2018-09-13T10:39:54.984Z,3.50
2018-09-13T10:42:30.015Z,5.27
2018-09-13T10:45:04.897Z,2.80
2018-09-13T10:47:42.165Z,3.73
2018-09-13T10:50:14.711Z,3.30
2018-09-13T10:52:48.391Z,3.43
2018-09-13T10:55:18.362Z,3.57
2018-09-13T10:57:48.247Z,5.60
2018-09-13T11:00:18.315Z,4.43
2018-09-13T11:02:48.239Z,2.77
2018-09-13T11:05:18.042Z,5.57
2018-09-13T11:07:47.813Z,4.87
2018-09-13T11:10:17.576Z,3.20
2018-09-13T11:12:50.557Z,3.53
2018-09-13T11:15:25.897Z,2.97
2018-09-13T11:17:55.731Z,3.73
2018-09-13T11:20:25.405Z,2.93
2018-09-13T11:22:55.692Z,6.97
2018-09-13T11:25:25.796Z,3.30
2018-09-13T11:27:55.894Z,2.97
2018-09-13T11:30:25.921Z,4.20
2018-09-13T11:32:55.713Z,6.17
2018-09-13T11:35:25.507Z,3.53
2018-09-13T11:37:55.351Z,4.43
2018-09-13T11:40:25.292Z,2.77
2018-09-13T11:42:54.954Z,4.03
2018-09-13T11:45:24.780Z,3.00
2018-09-13T11:47:54.599Z,6.53
2018-09-13T11:50:24.371Z,3.13
2018-09-13T11:52:54.184Z,3.27
2018-09-13T11:55:23.934Z,3.67
2018-09-13T11:57:53.796Z,5.33
2018-09-13T12:00:23.552Z,4.83
2018-09-13T12:02:53.450Z,4.80
2018-09-13T12:05:23.197Z,6.20
2018-09-13T12:07:52.956Z,4.70
2018-09-13T12:10:22.699Z,4.63
2018-09-13T12:12:52.863Z,6.23
2018-09-13T12:15:22.576Z,4.67
2018-09-13T12:17:52.687Z,3.97
2018-09-13T12:20:22.719Z,7.00
2018-09-13T12:22:52.254Z,5.40
2018-09-13T12:25:22.021Z,4.93
2018-09-13T12:27:51.753Z,4.67
2018-09-13T12:30:21.512Z,6.60
2018-09-13T12:32:51.279Z,4.37
2018-09-13T12:35:21.548Z,6.83
2018-09-13T12:37:52.134Z,1.97
2018-09-13T12:40:21.868Z,4.10
2018-09-13T12:42:51.613Z,3.90
2018-09-13T12:45:21.374Z,4.60
2018-09-13T12:47:51.166Z,6.03
2018-09-13T12:50:20.965Z,3.67
2018-09-13T12:52:50.816Z,5.00
2018-09-13T12:55:20.834Z,4.67
2018-09-13T12:57:50.639Z,3.77
2018-09-13T13:00:20.359Z,4.80
2018-09-13T13:02:50.114Z,5.93
2018-09-13T13:05:20.188Z,4.63
2018-09-13T13:07:50.028Z,4.43
2018-09-13T13:10:20.129Z,3.50
2018-09-13T13:12:49.890Z,5.70
2018-09-13T13:15:19.639Z,6.50
2018-09-13T13:17:49.422Z,3.47
2018-09-13T13:20:19.259Z,3.17
2018-09-13T13:22:49.024Z,1.47
2018-09-13T13:25:18.826Z,3.00
2018-09-13T13:27:48.657Z,2.23
2018-09-13T13:30:18.407Z,2.90
2018-09-13T13:32:48.387Z,1.33
2018-09-13T13:35:18.148Z,2.17
2018-09-13T13:37:48.068Z,3.97
2018-09-13T13:40:17.998Z,3.07
2018-09-13T13:42:48.169Z,4.20
2018-09-13T13:45:17.885Z,3.13
2018-09-13T13:47:47.725Z,3.53
2018-09-13T13:50:17.491Z,3.67
2018-09-13T13:52:47.257Z,2.17
2018-09-13T13:55:17.156Z,2.27
2018-09-13T13:57:46.919Z,3.33
2018-09-13T14:00:16.856Z,3.03
2018-09-13T14:02:46.590Z,3.93
2018-09-13T14:05:16.368Z,3.70
2018-09-13T14:07:46.101Z,3.53
2018-09-13T14:10:15.787Z,3.40
2018-09-13T14:12:45.619Z,6.10
2018-09-13T14:15:15.353Z,2.87
2018-09-13T14:17:45.065Z,3.83
2018-09-13T14:20:14.895Z,3.70
2018-09-13T14:22:44.638Z,5.67
2018-09-13T14:25:14.514Z,2.53
2018-09-13T14:27:44.330Z,3.63
2018-09-13T14:30:14.131Z,3.93
2018-09-13T14:32:43.919Z,3.60
2018-09-13T14:35:13.753Z,2.60
2018-09-13T14:37:43.794Z,3.30
2018-09-13T14:40:13.680Z,3.07
2018-09-13T14:42:43.391Z,1.93
2018-09-13T14:45:13.126Z,4.93
2018-09-13T14:47:42.937Z,5.83
2018-09-13T14:50:12.684Z,4.97
2018-09-13T14:52:42.439Z,3.57
2018-09-13T14:55:12.242Z,3.87
2018-09-13T14:57:41.975Z,4.17
2018-09-13T15:00:11.798Z,3.67
2018-09-13T15:02:41.579Z,3.73
2018-09-13T15:05:11.365Z,3.40
2018-09-13T15:07:41.129Z,5.90
2018-09-13T15:10:10.885Z,6.03
2018-09-13T15:12:41.431Z,3.57
2018-09-13T15:15:11.473Z,5.63
2018-09-13T15:17:41.279Z,4.73
2018-09-13T15:20:11.938Z,3.37
2018-09-13T15:22:41.735Z,3.80
2018-09-13T15:25:11.762Z,3.87
2018-09-13T15:27:41.510Z,5.20
2018-09-13T15:30:11.347Z,4.83
2018-09-13T15:32:41.172Z,5.40
2018-09-13T15:35:11.152Z,4.90
2018-09-13T15:37:40.956Z,4.53
2018-09-13T15:40:10.751Z,3.27
2018-09-13T15:42:40.508Z,5.90
2018-09-13T15:45:10.340Z,2.83
2018-09-13T15:47:40.099Z,5.53
2018-09-13T15:50:09.931Z,3.10
2018-09-13T15:52:39.832Z,5.17
2018-09-13T15:55:09.628Z,4.40
2018-09-13T15:57:39.386Z,3.73
2018-09-13T16:00:09.614Z,4.97
2018-09-13T16:02:39.544Z,3.63
2018-09-13T16:05:09.718Z,4.70
2018-09-13T16:07:39.823Z,3.33
2018-09-13T16:10:09.682Z,4.63
2018-09-13T16:12:39.461Z,6.50
2018-09-13T16:15:09.292Z,3.53
2018-09-13T16:17:39.089Z,3.57
2018-09-13T16:20:08.899Z,4.80
2018-09-13T16:22:38.712Z,5.13
2018-09-13T16:25:08.613Z,7.97
2018-09-13T16:27:38.702Z,6.00
2018-09-13T16:30:08.610Z,5.40
2018-09-13T16:32:38.311Z,3.70
2018-09-13T16:35:08.186Z,5.13
2018-09-13T16:37:43.267Z,2.33
2018-09-13T16:40:18.313Z,3.40
2018-09-13T16:42:53.608Z,5.53
2018-09-13T16:45:30.953Z,3.17
2018-09-13T16:48:02.062Z,3.50
2018-09-13T16:50:31.788Z,3.43
2018-09-13T16:53:01.587Z,3.23
2018-09-13T16:55:31.625Z,2.70
2018-09-13T16:58:01.369Z,4.37
2018-09-13T17:00:31.115Z,2.70
2018-09-13T17:03:00.840Z,4.20
2018-09-13T17:05:30.599Z,5.87
2018-09-13T17:08:00.305Z,5.67
2018-09-13T17:10:30.019Z,6.43
2018-09-13T17:12:59.833Z,3.17
2018-09-13T17:15:29.673Z,4.00
2018-09-13T17:17:59.576Z,4.53
2018-09-13T17:20:29.336Z,4.23
2018-09-13T17:22:59.281Z,5.63
2018-09-13T17:25:29.147Z,3.90
2018-09-13T17:27:59.108Z,5.53
2018-09-13T17:30:28.738Z,5.43
2018-09-13T17:32:59.995Z,7.20
2018-09-13T17:35:30.079Z,3.40
2018-09-13T17:38:00.126Z,5.80
2018-09-13T17:40:29.740Z,3.33
2018-09-13T17:42:59.282Z,4.00
2018-09-13T17:45:28.902Z,5.27
2018-09-13T17:47:58.618Z,5.30
2018-09-13T17:50:28.533Z,4.80
2018-09-13T17:52:58.175Z,4.37
2018-09-13T17:55:27.756Z,3.63
2018-09-13T17:57:57.369Z,5.17
2018-09-13T18:00:26.964Z,5.03
2018-09-13T18:02:56.585Z,5.43
2018-09-13T18:05:26.096Z,3.87
2018-09-13T18:07:55.821Z,3.70
2018-09-13T18:10:25.900Z,4.43
2018-09-13T18:12:55.682Z,7.07
2018-09-13T18:15:25.279Z,6.00
2018-09-13T18:17:54.938Z,9.67
2018-09-13T18:20:25.068Z,4.47
2018-09-13T18:22:54.666Z,4.80
2018-09-13T18:25:24.364Z,4.67
2018-09-13T18:27:54.033Z,3.60
2018-09-13T18:30:23.639Z,3.73
2018-09-13T18:32:53.588Z,3.77
2018-09-13T18:35:23.189Z,4.80
2018-09-13T18:37:52.747Z,4.00
2018-09-13T18:40:22.435Z,4.30
2018-09-13T18:42:51.945Z,3.17
2018-09-13T18:45:21.590Z,3.93
2018-09-13T18:47:51.123Z,5.30
2018-09-13T18:50:20.724Z,4.33
2018-09-13T18:52:50.489Z,4.23
2018-09-13T18:55:20.564Z,2.27
2018-09-13T18:57:50.112Z,4.17
2018-09-13T19:00:19.655Z,3.00
2018-09-13T19:02:49.313Z,4.77
2018-09-13T19:05:18.894Z,3.70
2018-09-13T19:07:48.781Z,4.83
2018-09-13T19:10:18.338Z,4.50
2018-09-13T19:12:48.085Z,4.33
2018-09-13T19:15:17.617Z,4.63
2018-09-13T19:17:47.304Z,1.97
2018-09-13T19:20:16.903Z,6.57
2018-09-13T19:22:46.486Z,5.50
2018-09-13T19:25:16.083Z,4.13
2018-09-13T19:27:45.688Z,5.10
2018-09-13T19:30:15.279Z,6.20
2018-09-13T19:32:44.921Z,5.17
2018-09-13T19:35:14.639Z,2.83
2018-09-13T19:37:44.378Z,2.63
2018-09-13T19:40:14.039Z,5.10
2018-09-13T19:42:43.903Z,5.03
2018-09-13T19:45:13.504Z,3.67
2018-09-13T19:47:43.038Z,3.03
2018-09-13T19:50:12.564Z,5.23
2018-09-13T19:52:42.144Z,8.90
2018-09-13T19:55:11.657Z,7.60
2018-09-13T19:57:41.155Z,3.17
2018-09-13T20:00:10.688Z,5.07
2018-09-13T20:02:40.185Z,3.27
2018-09-13T20:05:09.714Z,3.60
2018-09-13T20:07:39.268Z,2.70
2018-09-13T20:10:08.782Z,3.73
2018-09-13T20:12:38.227Z,7.30
2018-09-13T20:15:07.815Z,3.23
2018-09-13T20:17:37.361Z,3.73
2018-09-13T20:20:06.919Z,5.10
2018-09-13T20:22:36.429Z,3.13
2018-09-13T20:25:06.011Z,3.43
2018-09-13T20:27:35.577Z,4.63
2018-09-13T20:30:05.892Z,3.43
2018-09-13T20:32:35.468Z,3.53
2018-09-13T20:35:05.010Z,4.97
2018-09-13T20:37:35.375Z,4.97
2018-09-13T20:40:04.959Z,3.83
2018-09-13T20:42:34.498Z,4.93
2018-09-13T20:45:04.134Z,1.93
2018-09-13T20:47:33.647Z,5.37
2018-09-13T20:50:03.160Z,4.13
2018-09-13T20:52:32.712Z,2.93
2018-09-13T20:55:02.345Z,5.83
2018-09-13T20:57:32.088Z,4.97
2018-09-13T21:00:01.690Z,6.53
2018-09-13T21:02:31.239Z,2.73
2018-09-13T21:05:00.744Z,5.40
2018-09-13T21:07:30.285Z,2.47
2018-09-13T21:09:59.843Z,4.90
2018-09-13T21:12:29.352Z,2.93
2018-09-13T21:14:58.891Z,4.70
2018-09-13T21:17:28.394Z,9.03
2018-09-13T21:19:57.936Z,2.40
2018-09-13T21:22:27.455Z,4.03
2018-09-13T21:24:57.044Z,3.97
2018-09-13T21:27:26.546Z,4.70
2018-09-13T21:29:56.513Z,4.97
2018-09-13T21:32:26.440Z,5.23
2018-09-13T21:34:56.008Z,3.93
2018-09-13T21:37:25.478Z,1.60
2018-09-13T21:39:55.153Z,5.37
2018-09-13T21:42:24.662Z,4.43
2018-09-13T21:44:54.297Z,4.10
2018-09-13T21:47:23.786Z,5.67
2018-09-13T21:49:53.364Z,5.33
2018-09-13T21:52:23.004Z,2.77
2018-09-13T21:54:52.607Z,3.43
2018-09-13T21:57:22.089Z,6.67
2018-09-13T21:59:51.586Z,4.20
2018-09-13T22:02:21.011Z,4.23
2018-09-13T22:04:50.606Z,5.20
2018-09-13T22:07:20.089Z,4.80
2018-09-13T22:09:49.650Z,2.67
2018-09-13T22:12:19.185Z,3.97
2018-09-13T22:14:48.714Z,2.77
2018-09-13T22:17:18.301Z,4.27
2018-09-13T22:19:47.819Z,4.03
2018-09-13T22:22:17.407Z,6.77
2018-09-13T22:24:46.923Z,8.33
2018-09-13T22:27:16.393Z,6.33
2018-09-13T22:29:45.938Z,6.20
2018-09-13T22:32:15.406Z,6.03
2018-09-13T22:34:44.932Z,4.67
2018-09-13T22:37:14.425Z,3.60
2018-09-13T22:39:43.928Z,2.10
2018-09-13T22:42:13.433Z,5.70
2018-09-13T22:44:43.728Z,4.57
2018-09-13T22:47:13.406Z,4.37
2018-09-13T22:49:42.950Z,9.33
2018-09-13T22:52:14.322Z,5.13
2018-09-13T22:54:43.973Z,5.17
2018-09-13T22:57:13.490Z,3.67
2018-09-13T22:59:43.004Z,4.60
2018-09-13T23:02:12.474Z,4.33
2018-09-13T23:04:42.154Z,1.93
2018-09-13T23:07:11.646Z,3.83
2018-09-13T23:09:41.259Z,3.53
2018-09-13T23:12:10.829Z,4.77
2018-09-13T23:14:40.356Z,4.80
2018-09-13T23:17:09.906Z,2.83
2018-09-13T23:19:39.465Z,5.33
2018-09-13T23:22:10.898Z,4.27
2018-09-13T23:24:40.453Z,6.30
2018-09-13T23:27:10.269Z,2.97
2018-09-13T23:29:39.760Z,3.63
2018-09-13T23:32:09.331Z,5.47
2018-09-13T23:34:38.843Z,5.03
2018-09-13T23:37:08.367Z,3.37
2018-09-13T23:39:38.028Z,4.93
2018-09-13T23:42:07.445Z,3.30
2018-09-13T23:44:36.984Z,3.97
2018-09-13T23:47:06.857Z,3.23
2018-09-13T23:49:36.379Z,6.17
2018-09-13T23:52:05.922Z,4.50
2018-09-13T23:54:35.434Z,4.87
2018-09-13T23:57:04.879Z,5.13
2018-09-13T23:59:34.358Z,3.87
